Aérodrome :
LOGIN :

S'inscrire | Disclaimer

   EN    FR    IT 

 










Légende :    VFR   VFR Marginal   IFR   IFR Intensif   IFR Très Intensif
Visi : 
Plafond : 
>= 8 km
>= 3000ft
5 à 8 km
1000 à 3000 ft
1500m à 5 km
500 à 1000 ft
800 à 1500m
200 à 500 ft
< 800m
< 200 ft
Symboles :   Orages  Brouillard  Fortes neiges  Fortes précipitations  Vent > 20 kt
SIGMETs :   Divers  Orages  Givrage  Turbulence  Onde Orograph.  Cendres Volcan.






- Altitude de l'aérodrome : 1090 ft
- Code IATA : CFE


LFLC - Clermont-Ferrand Auvergne

DERNIER METAR :
  • 151000Z AUTO 22009KT 9999 BKN045 13/06 Q1010 NOSIG

METARs EXPIRÉS :
  • 150930Z AUTO 20009KT 160V250 9999 BKN045 13/06 Q1010 NOSIG
  • 150900Z AUTO 21010KT 9999 OVC045 12/06 Q1009 NOSIG
  • 150830Z AUTO 19011KT 9999 BKN045 12/06 Q1009 NOSIG
  • 150800Z AUTO 19011KT 9999 BKN046 12/06 Q1009 NOSIG
  • 150730Z AUTO 18013KT 9999 BKN046 BKN080 11/06 Q1009 NOSIG

TAF TAF LFLC
Valide du 15 à 09h jusqu'au 16 à 09h UTC


150800Z 1509/1609 18012KT CAVOK
TEMPO 1509/1515 BKN040
PROB30
TEMPO 1522/1604 18015G25KT
BECMG 1607/1609 17015G25KT
ATIS : +33 4 73 62 74 38



MET'MAP, la Météo Aéronautique d'un coup d'oeil ! - Copyright ORBIFLY Décembre 2007 - Disclaimer

ORBIFLY MET'MAP TEAM :

Programmation & Développement : Alexandra Zaïnal
Sur une idée originale de : Baudouin d'Aumeries
Assistance à la programmation : Marc-Olivier Méhu
Soutien technique & logistique : Manuel Goepfert

Contact : metmap@orbifly.com




SOURCES & CREDITS :

   NOAA